Startpagina
METAR-TAF:

METAR-TAF

Vliegvelden :

Georgetown, Ascension

breedte: 07-58S, lengte: 014-24W, hoogte: 86 m

Actueel weer

Dit bericht is 1 uur en het 9 minuten geleden gemaakt, om 11:50 UTC
Wind 15 kt uit het zuidoosten
Temperatuur 26°C
Vochtigheid 61%
Druk 1015 hPa
Zicht 10 km of meer
Verspreide wolken op 2100 ft
Gebroken wolken op 3600 ft

METAR: FHAW 221150Z 13015KT 9999 SCT021 BKN036 26/18 Q1015 WHT

Tijdstip: 12:59 (12:59 UTC)


TAF: ontbreekt

Waarnemingen en weersverwachtingen van meer dan 4000 vliegvelden (METAR en TAF).

De beschikbare stations zijn de gele en rode punten op de kaart.

Ga met uw muis naar het station om de naam te zien.

Klik dan om waarnemingen en weersverwachtingen te zien.

kaart wijzigen: klik op de groene knoppen met een zwart kruis om in te zoomen, op de groene knop met een streepje om uit te zoomen of op de groene pijlen voor aangrenzende kaarten.


METAR-TAF: